sensor_id;sensor_type;location;lat;lon;timestamp;P1;durP1;ratioP1;P2;durP2;ratioP2
39864;SDS011;25538;48.392;9.976;2022-08-18T00:02:07;57.80;;;44.10;;
39864;SDS011;25538;48.392;9.976;2022-08-18T00:04:37;46.67;;;41.50;;
39864;SDS011;25538;48.392;9.976;2022-08-18T00:07:05;49.63;;;41.87;;
39864;SDS011;25538;48.392;9.976;2022-08-18T00:09:33;47.40;;;40.73;;
39864;SDS011;25538;48.392;9.976;2022-08-18T00:12:00;59.87;;;44.17;;
39864;SDS011;25538;48.392;9.976;2022-08-18T00:14:29;59.43;;;45.17;;
39864;SDS011;25538;48.392;9.976;2022-08-18T00:16:56;73.27;;;48.97;;
39864;SDS011;25538;48.392;9.976;2022-08-18T00:19:22;52.97;;;44.00;;
39864;SDS011;25538;48.392;9.976;2022-08-18T00:21:49;56.77;;;42.60;;
39864;SDS011;25538;48.392;9.976;2022-08-18T00:24:15;49.10;;;40.57;;
39864;SDS011;25538;48.392;9.976;2022-08-18T00:26:41;55.20;;;42.80;;
39864;SDS011;25538;48.392;9.976;2022-08-18T00:29:07;64.57;;;45.70;;
39864;SDS011;25538;48.392;9.976;2022-08-18T00:31:33;51.50;;;45.13;;
39864;SDS011;25538;48.392;9.976;2022-08-18T00:33:59;62.37;;;44.20;;
39864;SDS011;25538;48.392;9.976;2022-08-18T00:36:26;49.63;;;42.17;;
39864;SDS011;25538;48.392;9.976;2022-08-18T00:38:52;58.20;;;44.37;;
39864;SDS011;25538;48.392;9.976;2022-08-18T00:41:19;53.50;;;44.00;;
39864;SDS011;25538;48.392;9.976;2022-08-18T00:43:46;57.43;;;45.00;;
39864;SDS011;25538;48.392;9.976;2022-08-18T00:46:16;57.40;;;44.20;;
39864;SDS011;25538;48.392;9.976;2022-08-18T00:48:43;75.30;;;49.17;;
39864;SDS011;25538;48.392;9.976;2022-08-18T00:51:14;99.80;;;57.67;;
39864;SDS011;25538;48.392;9.976;2022-08-18T00:53:45;74.57;;;54.27;;
39864;SDS011;25538;48.392;9.976;2022-08-18T00:56:19;89.57;;;55.17;;
39864;SDS011;25538;48.392;9.976;2022-08-18T00:58:52;74.50;;;51.97;;
39864;SDS011;25538;48.392;9.976;2022-08-18T01:01:25;64.50;;;48.40;;
39864;SDS011;25538;48.392;9.976;2022-08-18T01:03:55;64.20;;;47.23;;
39864;SDS011;25538;48.392;9.976;2022-08-18T01:06:27;57.33;;;43.73;;
39864;SDS011;25538;48.392;9.976;2022-08-18T01:08:59;83.30;;;50.80;;
39864;SDS011;25538;48.392;9.976;2022-08-18T01:11:26;58.20;;;45.80;;
39864;SDS011;25538;48.392;9.976;2022-08-18T01:13:52;74.23;;;51.77;;
39864;SDS011;25538;48.392;9.976;2022-08-18T01:16:19;79.53;;;53.70;;
39864;SDS011;25538;48.392;9.976;2022-08-18T01:19:05;88.87;;;55.27;;
39864;SDS011;25538;48.392;9.976;2022-08-18T01:21:54;79.10;;;53.73;;
39864;SDS011;25538;48.392;9.976;2022-08-18T01:24:28;72.00;;;48.30;;
39864;SDS011;25538;48.392;9.976;2022-08-18T01:27:16;67.80;;;50.03;;
39864;SDS011;25538;48.392;9.976;2022-08-18T01:29:47;80.50;;;51.30;;
39864;SDS011;25538;48.392;9.976;2022-08-18T01:32:17;70.10;;;50.20;;
39864;SDS011;25538;48.392;9.976;2022-08-18T01:34:46;82.10;;;54.80;;
39864;SDS011;25538;48.392;9.976;2022-08-18T01:37:17;84.70;;;56.33;;
39864;SDS011;25538;48.392;9.976;2022-08-18T01:39:45;85.47;;;58.80;;
39864;SDS011;25538;48.392;9.976;2022-08-18T01:42:13;75.43;;;56.20;;
39864;SDS011;25538;48.392;9.976;2022-08-18T01:44:41;75.17;;;52.23;;
39864;SDS011;25538;48.392;9.976;2022-08-18T01:47:09;66.25;;;52.22;;
39864;SDS011;25538;48.392;9.976;2022-08-18T01:49:36;63.67;;;47.88;;
39864;SDS011;25538;48.392;9.976;2022-08-18T01:52:03;59.92;;;50.10;;
39864;SDS011;25538;48.392;9.976;2022-08-18T01:54:31;70.80;;;52.25;;
39864;SDS011;25538;48.392;9.976;2022-08-18T01:56:57;85.22;;;55.67;;
39864;SDS011;25538;48.392;9.976;2022-08-18T01:59:23;101.23;;;60.07;;
39864;SDS011;25538;48.392;9.976;2022-08-18T02:01:48;65.67;;;52.47;;
39864;SDS011;25538;48.392;9.976;2022-08-18T02:04:17;66.50;;;50.47;;
39864;SDS011;25538;48.392;9.976;2022-08-18T02:06:43;72.90;;;51.97;;
39864;SDS011;25538;48.392;9.976;2022-08-18T02:09:09;63.40;;;51.57;;
39864;SDS011;25538;48.392;9.976;2022-08-18T02:11:35;63.87;;;52.30;;
39864;SDS011;25538;48.392;9.976;2022-08-18T02:14:01;65.53;;;51.57;;
39864;SDS011;25538;48.392;9.976;2022-08-18T02:16:27;63.05;;;51.72;;
39864;SDS011;25538;48.392;9.976;2022-08-18T02:18:54;92.90;;;60.95;;
39864;SDS011;25538;48.392;9.976;2022-08-18T02:21:20;76.93;;;57.00;;
39864;SDS011;25538;48.392;9.976;2022-08-18T02:23:47;76.70;;;58.95;;
39864;SDS011;25538;48.392;9.976;2022-08-18T02:26:14;84.38;;;61.20;;
39864;SDS011;25538;48.392;9.976;2022-08-18T02:28:41;91.63;;;62.92;;
39864;SDS011;25538;48.392;9.976;2022-08-18T02:31:10;84.45;;;59.30;;
39864;SDS011;25538;48.392;9.976;2022-08-18T02:33:38;83.18;;;57.30;;
39864;SDS011;25538;48.392;9.976;2022-08-18T02:36:05;73.45;;;52.22;;
39864;SDS011;25538;48.392;9.976;2022-08-18T02:38:32;72.40;;;53.15;;
39864;SDS011;25538;48.392;9.976;2022-08-18T02:40:59;73.13;;;54.75;;
39864;SDS011;25538;48.392;9.976;2022-08-18T02:43:28;56.85;;;46.88;;
39864;SDS011;25538;48.392;9.976;2022-08-18T02:45:55;59.65;;;48.42;;
39864;SDS011;25538;48.392;9.976;2022-08-18T02:48:22;67.53;;;50.90;;
39864;SDS011;25538;48.392;9.976;2022-08-18T02:53:29;66.82;;;48.78;;
39864;SDS011;25538;48.392;9.976;2022-08-18T02:56:03;59.42;;;49.30;;
39864;SDS011;25538;48.392;9.976;2022-08-18T02:58:40;86.00;;;54.15;;
39864;SDS011;25538;48.392;9.976;2022-08-18T03:01:06;70.38;;;54.22;;
39864;SDS011;25538;48.392;9.976;2022-08-18T03:03:32;77.40;;;54.07;;
39864;SDS011;25538;48.392;9.976;2022-08-18T03:05:58;72.67;;;52.00;;
39864;SDS011;25538;48.392;9.976;2022-08-18T03:08:24;60.07;;;47.70;;
39864;SDS011;25538;48.392;9.976;2022-08-18T03:10:50;51.77;;;41.73;;
39864;SDS011;25538;48.392;9.976;2022-08-18T03:13:17;52.15;;;39.75;;
39864;SDS011;25538;48.392;9.976;2022-08-18T03:15:43;47.97;;;39.78;;
39864;SDS011;25538;48.392;9.976;2022-08-18T03:18:09;42.77;;;37.60;;
39864;SDS011;25538;48.392;9.976;2022-08-18T03:20:36;51.53;;;40.45;;
39864;SDS011;25538;48.392;9.976;2022-08-18T03:23:03;45.22;;;39.22;;
39864;SDS011;25538;48.392;9.976;2022-08-18T03:25:29;43.08;;;35.90;;
39864;SDS011;25538;48.392;9.976;2022-08-18T03:27:55;40.35;;;35.53;;
39864;SDS011;25538;48.392;9.976;2022-08-18T03:30:21;47.63;;;38.38;;
39864;SDS011;25538;48.392;9.976;2022-08-18T03:32:48;55.80;;;39.72;;
39864;SDS011;25538;48.392;9.976;2022-08-18T03:35:15;47.35;;;39.38;;
39864;SDS011;25538;48.392;9.976;2022-08-18T03:37:41;43.03;;;36.67;;
39864;SDS011;25538;48.392;9.976;2022-08-18T03:40:07;42.72;;;36.38;;
39864;SDS011;25538;48.392;9.976;2022-08-18T03:42:35;49.45;;;37.78;;
39864;SDS011;25538;48.392;9.976;2022-08-18T03:45:02;46.28;;;38.70;;
39864;SDS011;25538;48.392;9.976;2022-08-18T03:47:28;45.15;;;37.15;;
39864;SDS011;25538;48.392;9.976;2022-08-18T03:49:54;52.23;;;39.03;;
39864;SDS011;25538;48.392;9.976;2022-08-18T03:52:20;57.57;;;40.30;;
39864;SDS011;25538;48.392;9.976;2022-08-18T03:54:47;50.50;;;38.97;;
39864;SDS011;25538;48.392;9.976;2022-08-18T03:57:13;47.80;;;39.20;;
39864;SDS011;25538;48.392;9.976;2022-08-18T03:59:39;48.93;;;38.50;;
39864;SDS011;25538;48.392;9.976;2022-08-18T04:02:08;52.80;;;38.47;;
39864;SDS011;25538;48.392;9.976;2022-08-18T04:04:35;53.58;;;38.67;;
39864;SDS011;25538;48.392;9.976;2022-08-18T04:07:06;49.22;;;38.10;;
39864;SDS011;25538;48.392;9.976;2022-08-18T04:09:33;49.20;;;37.90;;
39864;SDS011;25538;48.392;9.976;2022-08-18T04:12:07;54.60;;;42.30;;
39864;SDS011;25538;48.392;9.976;2022-08-18T04:14:37;55.22;;;42.70;;
39864;SDS011;25538;48.392;9.976;2022-08-18T04:17:10;52.95;;;40.08;;
39864;SDS011;25538;48.392;9.976;2022-08-18T04:19:36;54.63;;;41.45;;
39864;SDS011;25538;48.392;9.976;2022-08-18T04:22:02;55.73;;;41.67;;
39864;SDS011;25538;48.392;9.976;2022-08-18T04:24:29;55.42;;;42.70;;
39864;SDS011;25538;48.392;9.976;2022-08-18T04:26:57;54.90;;;43.20;;
39864;SDS011;25538;48.392;9.976;2022-08-18T04:29:25;53.38;;;42.50;;
39864;SDS011;25538;48.392;9.976;2022-08-18T04:31:51;57.28;;;44.20;;
39864;SDS011;25538;48.392;9.976;2022-08-18T04:34:18;52.43;;;40.47;;
39864;SDS011;25538;48.392;9.976;2022-08-18T04:36:45;53.28;;;41.70;;
39864;SDS011;25538;48.392;9.976;2022-08-18T04:39:11;52.78;;;41.75;;
39864;SDS011;25538;48.392;9.976;2022-08-18T04:41:38;50.15;;;40.17;;
39864;SDS011;25538;48.392;9.976;2022-08-18T04:44:07;48.38;;;40.03;;
39864;SDS011;25538;48.392;9.976;2022-08-18T04:46:35;45.17;;;37.38;;
39864;SDS011;25538;48.392;9.976;2022-08-18T04:49:06;43.45;;;35.97;;
39864;SDS011;25538;48.392;9.976;2022-08-18T04:51:35;45.92;;;37.95;;
39864;SDS011;25538;48.392;9.976;2022-08-18T04:54:04;41.47;;;34.22;;
39864;SDS011;25538;48.392;9.976;2022-08-18T04:56:31;37.37;;;33.43;;
39864;SDS011;25538;48.392;9.976;2022-08-18T04:59:03;40.30;;;34.30;;
39864;SDS011;25538;48.392;9.976;2022-08-18T05:01:36;40.00;;;35.20;;
39864;SDS011;25538;48.392;9.976;2022-08-18T05:04:07;40.50;;;36.10;;
39864;SDS011;25538;48.392;9.976;2022-08-18T05:06:34;40.80;;;35.85;;
39864;SDS011;25538;48.392;9.976;2022-08-18T05:09:02;42.90;;;37.50;;
39864;SDS011;25538;48.392;9.976;2022-08-18T05:11:30;40.77;;;36.60;;
39864;SDS011;25538;48.392;9.976;2022-08-18T05:14:04;40.63;;;36.23;;
39864;SDS011;25538;48.392;9.976;2022-08-18T05:16:32;33.17;;;29.77;;
39864;SDS011;25538;48.392;9.976;2022-08-18T05:19:01;36.30;;;32.67;;
39864;SDS011;25538;48.392;9.976;2022-08-18T05:21:31;33.47;;;29.97;;
39864;SDS011;25538;48.392;9.976;2022-08-18T05:23:58;34.33;;;30.93;;
39864;SDS011;25538;48.392;9.976;2022-08-18T05:26:25;33.50;;;30.30;;
39864;SDS011;25538;48.392;9.976;2022-08-18T05:28:52;33.83;;;30.83;;
39864;SDS011;25538;48.392;9.976;2022-08-18T05:31:19;32.30;;;29.00;;
39864;SDS011;25538;48.392;9.976;2022-08-18T05:33:47;27.80;;;25.50;;
39864;SDS011;25538;48.392;9.976;2022-08-18T05:41:21;31.33;;;28.15;;
39864;SDS011;25538;48.392;9.976;2022-08-18T05:43:57;32.20;;;28.93;;
39864;SDS011;25538;48.392;9.976;2022-08-18T05:49:19;35.50;;;31.30;;
39864;SDS011;25538;48.392;9.976;2022-08-18T05:51:47;33.83;;;30.47;;
39864;SDS011;25538;48.392;9.976;2022-08-18T05:54:15;33.17;;;28.80;;
39864;SDS011;25538;48.392;9.976;2022-08-18T05:57:10;33.07;;;29.97;;
39864;SDS011;25538;48.392;9.976;2022-08-18T05:59:40;33.03;;;29.67;;
39864;SDS011;25538;48.392;9.976;2022-08-18T06:07:18;37.93;;;33.83;;
39864;SDS011;25538;48.392;9.976;2022-08-18T06:09:55;35.80;;;32.27;;
39864;SDS011;25538;48.392;9.976;2022-08-18T06:29:25;30.57;;;27.67;;
39864;SDS011;25538;48.392;9.976;2022-08-18T06:37:22;32.23;;;29.00;;
39864;SDS011;25538;48.392;9.976;2022-08-18T06:39:57;33.63;;;30.33;;
39864;SDS011;25538;48.392;9.976;2022-08-18T06:42:24;28.70;;;26.00;;
39864;SDS011;25538;48.392;9.976;2022-08-18T06:44:57;27.53;;;25.23;;
39864;SDS011;25538;48.392;9.976;2022-08-18T06:47:47;30.40;;;27.70;;
39864;SDS011;25538;48.392;9.976;2022-08-18T06:50:23;31.13;;;28.33;;
39864;SDS011;25538;48.392;9.976;2022-08-18T06:52:59;31.43;;;28.50;;
39864;SDS011;25538;48.392;9.976;2022-08-18T06:55:38;32.73;;;29.83;;
39864;SDS011;25538;48.392;9.976;2022-08-18T07:00:43;36.90;;;33.07;;
39864;SDS011;25538;48.392;9.976;2022-08-18T07:03:17;37.97;;;33.97;;
39864;SDS011;25538;48.392;9.976;2022-08-18T07:05:59;36.33;;;32.90;;
39864;SDS011;25538;48.392;9.976;2022-08-18T07:08:40;37.10;;;33.43;;
39864;SDS011;25538;48.392;9.976;2022-08-18T07:13:42;31.07;;;27.97;;
39864;SDS011;25538;48.392;9.976;2022-08-18T07:16:21;28.40;;;25.90;;
39864;SDS011;25538;48.392;9.976;2022-08-18T07:18:51;27.93;;;25.53;;
39864;SDS011;25538;48.392;9.976;2022-08-18T07:21:27;27.50;;;24.90;;
39864;SDS011;25538;48.392;9.976;2022-08-18T07:23:56;29.43;;;26.70;;
39864;SDS011;25538;48.392;9.976;2022-08-18T07:26:29;30.27;;;27.50;;
39864;SDS011;25538;48.392;9.976;2022-08-18T07:28:55;26.70;;;24.20;;
39864;SDS011;25538;48.392;9.976;2022-08-18T07:31:43;24.87;;;22.67;;
39864;SDS011;25538;48.392;9.976;2022-08-18T07:34:17;26.87;;;24.27;;
39864;SDS011;25538;48.392;9.976;2022-08-18T07:36:54;25.63;;;23.30;;
39864;SDS011;25538;48.392;9.976;2022-08-18T07:39:29;25.27;;;23.17;;
39864;SDS011;25538;48.392;9.976;2022-08-18T07:42:12;25.37;;;23.33;;
39864;SDS011;25538;48.392;9.976;2022-08-18T07:44:48;27.40;;;25.00;;
39864;SDS011;25538;48.392;9.976;2022-08-18T07:47:48;29.20;;;26.57;;
39864;SDS011;25538;48.392;9.976;2022-08-18T07:50:16;30.43;;;27.53;;
39864;SDS011;25538;48.392;9.976;2022-08-18T07:52:47;28.67;;;25.97;;
39864;SDS011;25538;48.392;9.976;2022-08-18T07:55:28;26.30;;;24.00;;
39864;SDS011;25538;48.392;9.976;2022-08-18T08:01:00;26.83;;;24.53;;
39864;SDS011;25538;48.392;9.976;2022-08-18T08:06:30;27.27;;;24.53;;
39864;SDS011;25538;48.392;9.976;2022-08-18T08:12:12;24.43;;;22.53;;
39864;SDS011;25538;48.392;9.976;2022-08-18T08:15:04;24.63;;;22.60;;
39864;SDS011;25538;48.392;9.976;2022-08-18T08:18:12;22.23;;;20.13;;
39864;SDS011;25538;48.392;9.976;2022-08-18T08:20:45;23.17;;;20.77;;
39864;SDS011;25538;48.392;9.976;2022-08-18T08:23:21;23.60;;;21.67;;
39864;SDS011;25538;48.392;9.976;2022-08-18T08:34:18;17.67;;;16.47;;
39864;SDS011;25538;48.392;9.976;2022-08-18T08:36:46;14.00;;;13.00;;
39864;SDS011;25538;48.392;9.976;2022-08-18T08:41:53;14.30;;;13.30;;
39864;SDS011;25538;48.392;9.976;2022-08-18T08:47:04;12.23;;;11.43;;
39864;SDS011;25538;48.392;9.976;2022-08-18T08:49:46;10.60;;;9.90;;
39864;SDS011;25538;48.392;9.976;2022-08-18T08:52:24;12.97;;;12.07;;
39864;SDS011;25538;48.392;9.976;2022-08-18T08:55:06;9.47;;;8.87;;
39864;SDS011;25538;48.392;9.976;2022-08-18T08:57:42;10.17;;;9.57;;
39864;SDS011;25538;48.392;9.976;2022-08-18T09:00:14;8.57;;;8.07;;
39864;SDS011;25538;48.392;9.976;2022-08-18T09:02:50;8.90;;;8.30;;
39864;SDS011;25538;48.392;9.976;2022-08-18T09:05:27;8.23;;;7.83;;
39864;SDS011;25538;48.392;9.976;2022-08-18T09:19:28;9.43;;;8.73;;
39864;SDS011;25538;48.392;9.976;2022-08-18T09:24:47;11.67;;;10.97;;
39864;SDS011;25538;48.392;9.976;2022-08-18T09:27:35;10.70;;;10.07;;
39864;SDS011;25538;48.392;9.976;2022-08-18T09:30:07;11.10;;;10.30;;
39864;SDS011;25538;48.392;9.976;2022-08-18T09:36:12;11.07;;;10.27;;
39864;SDS011;25538;48.392;9.976;2022-08-18T09:39:07;9.10;;;8.60;;
39864;SDS011;25538;48.392;9.976;2022-08-18T09:42:02;11.37;;;10.57;;
39864;SDS011;25538;48.392;9.976;2022-08-18T09:47:12;7.77;;;7.37;;
39864;SDS011;25538;48.392;9.976;2022-08-18T09:54:59;6.53;;;6.10;;
39864;SDS011;25538;48.392;9.976;2022-08-18T09:57:30;7.50;;;7.00;;
39864;SDS011;25538;48.392;9.976;2022-08-18T10:13:16;7.20;;;6.80;;
39864;SDS011;25538;48.392;9.976;2022-08-18T10:15:50;7.20;;;6.80;;
39864;SDS011;25538;48.392;9.976;2022-08-18T10:26:59;5.80;;;5.50;;
39864;SDS011;25538;48.392;9.976;2022-08-18T10:37:01;5.90;;;5.60;;
39864;SDS011;25538;48.392;9.976;2022-08-18T10:42:09;6.47;;;6.17;;
39864;SDS011;25538;48.392;9.976;2022-08-18T10:44:44;6.87;;;6.57;;
39864;SDS011;25538;48.392;9.976;2022-08-18T10:47:22;6.53;;;6.13;;
39864;SDS011;25538;48.392;9.976;2022-08-18T10:49:53;5.83;;;5.50;;
39864;SDS011;25538;48.392;9.976;2022-08-18T10:58:08;6.13;;;5.83;;
39864;SDS011;25538;48.392;9.976;2022-08-18T11:06:06;7.47;;;7.00;;
39864;SDS011;25538;48.392;9.976;2022-08-18T11:08:43;7.33;;;6.77;;
39864;SDS011;25538;48.392;9.976;2022-08-18T11:11:12;7.00;;;6.60;;
39864;SDS011;25538;48.392;9.976;2022-08-18T11:13:54;7.13;;;6.53;;
39864;SDS011;25538;48.392;9.976;2022-08-18T11:16:49;7.10;;;6.47;;
39864;SDS011;25538;48.392;9.976;2022-08-18T11:19:38;6.27;;;5.90;;
39864;SDS011;25538;48.392;9.976;2022-08-18T11:22:06;5.77;;;5.47;;
39864;SDS011;25538;48.392;9.976;2022-08-18T11:24:55;5.90;;;5.50;;
39864;SDS011;25538;48.392;9.976;2022-08-18T11:27:22;7.43;;;6.83;;
39864;SDS011;25538;48.392;9.976;2022-08-18T11:29:51;7.43;;;6.93;;
39864;SDS011;25538;48.392;9.976;2022-08-18T11:34:49;7.57;;;7.17;;
39864;SDS011;25538;48.392;9.976;2022-08-18T11:39:49;6.70;;;6.30;;
39864;SDS011;25538;48.392;9.976;2022-08-18T11:42:17;7.03;;;6.60;;
39864;SDS011;25538;48.392;9.976;2022-08-18T11:44:44;7.87;;;7.47;;
39864;SDS011;25538;48.392;9.976;2022-08-18T11:47:16;7.50;;;7.10;;
39864;SDS011;25538;48.392;9.976;2022-08-18T11:49:52;7.50;;;7.10;;
39864;SDS011;25538;48.392;9.976;2022-08-18T11:52:43;7.70;;;7.20;;
39864;SDS011;25538;48.392;9.976;2022-08-18T11:55:17;7.57;;;7.07;;
39864;SDS011;25538;48.392;9.976;2022-08-18T11:58:02;7.60;;;7.20;;
39864;SDS011;25538;48.392;9.976;2022-08-18T12:03:06;8.93;;;8.27;;
39864;SDS011;25538;48.392;9.976;2022-08-18T12:05:40;7.73;;;7.23;;
39864;SDS011;25538;48.392;9.976;2022-08-18T12:08:46;8.60;;;8.10;;
39864;SDS011;25538;48.392;9.976;2022-08-18T12:11:14;8.13;;;7.63;;
39864;SDS011;25538;48.392;9.976;2022-08-18T12:13:45;6.90;;;6.53;;
39864;SDS011;25538;48.392;9.976;2022-08-18T12:16:15;7.83;;;7.33;;
39864;SDS011;25538;48.392;9.976;2022-08-18T12:18:54;7.53;;;7.03;;
39864;SDS011;25538;48.392;9.976;2022-08-18T12:21:20;7.10;;;6.70;;
39864;SDS011;25538;48.392;9.976;2022-08-18T12:23:46;7.20;;;6.70;;
39864;SDS011;25538;48.392;9.976;2022-08-18T12:26:13;7.23;;;6.83;;
39864;SDS011;25538;48.392;9.976;2022-08-18T12:28:39;7.07;;;6.60;;
39864;SDS011;25538;48.392;9.976;2022-08-18T12:31:06;7.23;;;6.63;;
39864;SDS011;25538;48.392;9.976;2022-08-18T12:33:33;7.03;;;6.63;;
39864;SDS011;25538;48.392;9.976;2022-08-18T12:36:01;7.10;;;6.70;;
39864;SDS011;25538;48.392;9.976;2022-08-18T12:38:27;8.03;;;7.53;;
39864;SDS011;25538;48.392;9.976;2022-08-18T12:40:54;8.47;;;7.50;;
39864;SDS011;25538;48.392;9.976;2022-08-18T12:43:19;7.90;;;7.50;;
39864;SDS011;25538;48.392;9.976;2022-08-18T12:45:45;9.97;;;9.17;;
39864;SDS011;25538;48.392;9.976;2022-08-18T12:48:12;7.43;;;7.03;;
39864;SDS011;25538;48.392;9.976;2022-08-18T12:50:38;9.50;;;9.00;;
39864;SDS011;25538;48.392;9.976;2022-08-18T12:53:04;9.20;;;8.50;;
39864;SDS011;25538;48.392;9.976;2022-08-18T12:55:33;8.23;;;7.53;;
39864;SDS011;25538;48.392;9.976;2022-08-18T12:58:01;8.23;;;7.60;;
39864;SDS011;25538;48.392;9.976;2022-08-18T13:00:29;8.73;;;8.13;;
39864;SDS011;25538;48.392;9.976;2022-08-18T13:02:56;9.27;;;8.67;;
39864;SDS011;25538;48.392;9.976;2022-08-18T13:05:22;9.30;;;8.70;;
39864;SDS011;25538;48.392;9.976;2022-08-18T13:07:48;8.73;;;8.23;;
39864;SDS011;25538;48.392;9.976;2022-08-18T13:10:13;8.70;;;8.10;;
39864;SDS011;25538;48.392;9.976;2022-08-18T13:12:39;8.90;;;8.30;;
39864;SDS011;25538;48.392;9.976;2022-08-18T13:15:05;9.33;;;8.50;;
39864;SDS011;25538;48.392;9.976;2022-08-18T13:17:35;9.67;;;8.97;;
39864;SDS011;25538;48.392;9.976;2022-08-18T13:20:04;9.93;;;9.30;;
39864;SDS011;25538;48.392;9.976;2022-08-18T13:22:39;9.40;;;8.80;;
39864;SDS011;25538;48.392;9.976;2022-08-18T13:25:05;10.27;;;9.67;;
39864;SDS011;25538;48.392;9.976;2022-08-18T13:27:33;10.40;;;9.60;;
39864;SDS011;25538;48.392;9.976;2022-08-18T13:30:01;8.23;;;7.83;;
39864;SDS011;25538;48.392;9.976;2022-08-18T13:32:30;10.00;;;9.40;;
39864;SDS011;25538;48.392;9.976;2022-08-18T13:34:56;10.97;;;10.27;;
39864;SDS011;25538;48.392;9.976;2022-08-18T13:37:22;11.20;;;10.33;;
39864;SDS011;25538;48.392;9.976;2022-08-18T13:39:50;12.07;;;11.27;;
39864;SDS011;25538;48.392;9.976;2022-08-18T13:42:17;12.60;;;11.70;;
39864;SDS011;25538;48.392;9.976;2022-08-18T13:44:43;10.10;;;9.50;;
39864;SDS011;25538;48.392;9.976;2022-08-18T13:47:09;11.43;;;10.73;;
39864;SDS011;25538;48.392;9.976;2022-08-18T13:49:35;11.40;;;10.50;;
39864;SDS011;25538;48.392;9.976;2022-08-18T13:52:01;12.47;;;11.67;;
39864;SDS011;25538;48.392;9.976;2022-08-18T13:54:28;11.50;;;10.80;;
39864;SDS011;25538;48.392;9.976;2022-08-18T13:56:57;11.60;;;10.80;;
39864;SDS011;25538;48.392;9.976;2022-08-18T13:59:24;12.23;;;11.30;;
39864;SDS011;25538;48.392;9.976;2022-08-18T14:02:01;10.87;;;10.10;;
39864;SDS011;25538;48.392;9.976;2022-08-18T14:04:35;11.73;;;11.03;;
39864;SDS011;25538;48.392;9.976;2022-08-18T14:07:03;11.13;;;10.30;;
39864;SDS011;25538;48.392;9.976;2022-08-18T14:09:31;12.47;;;11.47;;
39864;SDS011;25538;48.392;9.976;2022-08-18T14:11:57;11.13;;;10.43;;
39864;SDS011;25538;48.392;9.976;2022-08-18T14:14:23;10.87;;;10.23;;
39864;SDS011;25538;48.392;9.976;2022-08-18T14:16:49;12.43;;;11.67;;
39864;SDS011;25538;48.392;9.976;2022-08-18T14:19:15;11.73;;;10.83;;
39864;SDS011;25538;48.392;9.976;2022-08-18T14:22:00;13.30;;;12.30;;
39864;SDS011;25538;48.392;9.976;2022-08-18T14:24:45;12.07;;;11.27;;
39864;SDS011;25538;48.392;9.976;2022-08-18T14:27:30;13.60;;;12.50;;
39864;SDS011;25538;48.392;9.976;2022-08-18T14:30:08;11.37;;;10.67;;
39864;SDS011;25538;48.392;9.976;2022-08-18T14:32:36;10.70;;;10.00;;
39864;SDS011;25538;48.392;9.976;2022-08-18T14:35:04;11.20;;;10.50;;
39864;SDS011;25538;48.392;9.976;2022-08-18T14:37:31;10.70;;;9.90;;
39864;SDS011;25538;48.392;9.976;2022-08-18T14:39:57;10.60;;;10.00;;
39864;SDS011;25538;48.392;9.976;2022-08-18T14:42:23;11.77;;;10.60;;
39864;SDS011;25538;48.392;9.976;2022-08-18T14:44:51;11.20;;;10.50;;
39864;SDS011;25538;48.392;9.976;2022-08-18T14:47:17;10.53;;;9.93;;
39864;SDS011;25538;48.392;9.976;2022-08-18T14:49:43;11.10;;;10.30;;
39864;SDS011;25538;48.392;9.976;2022-08-18T14:52:10;11.80;;;10.90;;
39864;SDS011;25538;48.392;9.976;2022-08-18T14:54:37;11.03;;;10.13;;
39864;SDS011;25538;48.392;9.976;2022-08-18T14:57:04;10.70;;;10.00;;
39864;SDS011;25538;48.392;9.976;2022-08-18T14:59:33;9.93;;;9.33;;
39864;SDS011;25538;48.392;9.976;2022-08-18T15:02:00;10.60;;;9.93;;
39864;SDS011;25538;48.392;9.976;2022-08-18T15:04:26;12.90;;;12.00;;
39864;SDS011;25538;48.392;9.976;2022-08-18T15:06:52;12.10;;;11.20;;
39864;SDS011;25538;48.392;9.976;2022-08-18T15:09:18;13.00;;;12.10;;
39864;SDS011;25538;48.392;9.976;2022-08-18T15:11:44;12.30;;;11.40;;
39864;SDS011;25538;48.392;9.976;2022-08-18T15:14:10;11.43;;;10.63;;
39864;SDS011;25538;48.392;9.976;2022-08-18T15:16:36;10.40;;;9.80;;
39864;SDS011;25538;48.392;9.976;2022-08-18T15:19:03;10.40;;;9.70;;
39864;SDS011;25538;48.392;9.976;2022-08-18T15:21:29;10.23;;;9.63;;
39864;SDS011;25538;48.392;9.976;2022-08-18T15:24:14;11.20;;;10.10;;
39864;SDS011;25538;48.392;9.976;2022-08-18T15:26:59;12.60;;;11.60;;
39864;SDS011;25538;48.392;9.976;2022-08-18T15:29:27;12.50;;;11.60;;
39864;SDS011;25538;48.392;9.976;2022-08-18T15:31:53;11.40;;;10.70;;
39864;SDS011;25538;48.392;9.976;2022-08-18T15:34:19;12.20;;;11.40;;
39864;SDS011;25538;48.392;9.976;2022-08-18T15:36:46;11.60;;;10.80;;
39864;SDS011;25538;48.392;9.976;2022-08-18T15:39:12;12.47;;;11.47;;
39864;SDS011;25538;48.392;9.976;2022-08-18T15:41:43;12.13;;;11.33;;
39864;SDS011;25538;48.392;9.976;2022-08-18T15:44:14;12.83;;;11.70;;
39864;SDS011;25538;48.392;9.976;2022-08-18T15:46:45;11.87;;;11.10;;
39864;SDS011;25538;48.392;9.976;2022-08-18T15:49:13;12.93;;;11.93;;
39864;SDS011;25538;48.392;9.976;2022-08-18T15:51:40;11.30;;;10.50;;
39864;SDS011;25538;48.392;9.976;2022-08-18T15:54:06;11.90;;;11.10;;
39864;SDS011;25538;48.392;9.976;2022-08-18T15:56:33;10.87;;;10.10;;
39864;SDS011;25538;48.392;9.976;2022-08-18T15:59:01;10.77;;;10.00;;
39864;SDS011;25538;48.392;9.976;2022-08-18T16:01:28;11.70;;;11.00;;
39864;SDS011;25538;48.392;9.976;2022-08-18T16:03:54;11.47;;;10.57;;
39864;SDS011;25538;48.392;9.976;2022-08-18T16:06:21;11.77;;;10.77;;
39864;SDS011;25538;48.392;9.976;2022-08-18T16:08:50;10.20;;;9.50;;
39864;SDS011;25538;48.392;9.976;2022-08-18T16:11:17;10.50;;;9.90;;
39864;SDS011;25538;48.392;9.976;2022-08-18T16:13:44;10.90;;;10.10;;
39864;SDS011;25538;48.392;9.976;2022-08-18T16:16:14;11.23;;;10.43;;
39864;SDS011;25538;48.392;9.976;2022-08-18T16:18:43;11.57;;;10.67;;
39864;SDS011;25538;48.392;9.976;2022-08-18T16:21:11;10.90;;;10.20;;
39864;SDS011;25538;48.392;9.976;2022-08-18T16:23:40;11.90;;;10.90;;
39864;SDS011;25538;48.392;9.976;2022-08-18T16:26:08;12.27;;;11.47;;
39864;SDS011;25538;48.392;9.976;2022-08-18T16:28:38;12.40;;;11.60;;
39864;SDS011;25538;48.392;9.976;2022-08-18T16:31:10;13.13;;;12.13;;
39864;SDS011;25538;48.392;9.976;2022-08-18T16:33:40;12.17;;;11.47;;
39864;SDS011;25538;48.392;9.976;2022-08-18T16:36:07;11.97;;;11.07;;
39864;SDS011;25538;48.392;9.976;2022-08-18T16:38:35;12.00;;;11.20;;
39864;SDS011;25538;48.392;9.976;2022-08-18T16:41:08;12.23;;;11.40;;
39864;SDS011;25538;48.392;9.976;2022-08-18T16:43:39;11.90;;;10.90;;
39864;SDS011;25538;48.392;9.976;2022-08-18T16:46:26;12.03;;;11.20;;
39864;SDS011;25538;48.392;9.976;2022-08-18T16:48:53;13.20;;;12.20;;
39864;SDS011;25538;48.392;9.976;2022-08-18T16:51:21;13.00;;;12.17;;
39864;SDS011;25538;48.392;9.976;2022-08-18T16:53:49;12.53;;;11.73;;
39864;SDS011;25538;48.392;9.976;2022-08-18T16:56:18;13.67;;;12.77;;
39864;SDS011;25538;48.392;9.976;2022-08-18T16:58:46;14.07;;;12.97;;
39864;SDS011;25538;48.392;9.976;2022-08-18T17:01:31;12.33;;;11.23;;
39864;SDS011;25538;48.392;9.976;2022-08-18T17:04:21;12.90;;;12.00;;
39864;SDS011;25538;48.392;9.976;2022-08-18T17:06:49;12.70;;;11.87;;
39864;SDS011;25538;48.392;9.976;2022-08-18T17:09:16;11.97;;;11.27;;
39864;SDS011;25538;48.392;9.976;2022-08-18T17:11:43;12.00;;;11.23;;